createdAt,value
2017-05-07T00:01:31.613Z,5.22
2017-05-07T00:03:57.551Z,6.00
2017-05-07T00:15:12.822Z,5.04
2017-05-07T00:17:38.660Z,4.40
2017-05-07T00:34:47.672Z,5.20
2017-05-07T00:37:13.491Z,7.24
2017-05-07T00:39:39.370Z,5.16
2017-05-07T00:42:05.290Z,4.24
2017-05-07T00:44:31.138Z,4.48
2017-05-07T00:46:57.038Z,4.58
2017-05-07T00:49:22.873Z,4.36
2017-05-07T00:54:45.294Z,4.72
2017-05-07T00:57:11.177Z,4.40
2017-05-07T00:59:37.065Z,5.16
2017-05-07T01:02:02.908Z,4.42
2017-05-07T01:04:28.833Z,5.12
2017-05-07T01:15:44.231Z,4.72
2017-05-07T01:18:10.096Z,4.50
2017-05-07T01:35:19.261Z,4.18
2017-05-07T01:37:45.195Z,4.32
2017-05-07T01:40:11.765Z,4.48
2017-05-07T01:42:37.606Z,4.30
2017-05-07T01:45:03.521Z,4.44
2017-05-07T01:47:29.387Z,4.12
2017-05-07T01:55:49.803Z,4.60
2017-05-07T01:58:15.639Z,4.44
2017-05-07T02:00:42.254Z,4.70
2017-05-07T02:03:08.882Z,4.20
2017-05-07T02:14:53.200Z,4.38
2017-05-07T02:17:19.044Z,4.42
2017-05-07T02:19:44.961Z,4.32
2017-05-07T02:33:57.302Z,4.30
2017-05-07T02:54:03.516Z,4.48
2017-05-07T02:56:29.390Z,4.70
2017-05-07T02:58:55.242Z,4.58
2017-05-07T03:01:21.085Z,4.10
2017-05-07T03:03:46.945Z,6.20
2017-05-07T03:15:02.212Z,4.54
2017-05-07T03:17:28.078Z,4.52
2017-05-07T03:19:53.918Z,4.00
2017-05-07T03:34:05.631Z,4.68
2017-05-07T03:54:10.692Z,4.98
2017-05-07T03:56:36.578Z,4.60
2017-05-07T03:59:02.461Z,5.44
2017-05-07T04:01:29.077Z,4.36
2017-05-07T04:03:54.890Z,4.76
2017-05-07T04:15:11.889Z,4.24
2017-05-07T04:17:38.512Z,4.68
2017-05-07T04:20:04.351Z,4.70
2017-05-07T04:34:16.093Z,4.24
2017-05-07T04:36:48.030Z,5.08
2017-05-07T04:39:13.871Z,4.34
2017-05-07T04:41:39.700Z,4.34
2017-05-07T04:44:05.577Z,4.60
2017-05-07T04:46:31.413Z,5.20
2017-05-07T04:48:57.344Z,4.48
2017-05-07T04:54:19.810Z,4.24
2017-05-07T04:56:45.682Z,4.78
2017-05-07T04:59:11.554Z,4.60
2017-05-07T05:01:37.398Z,5.04
2017-05-07T05:04:03.269Z,4.28
2017-05-07T05:15:18.673Z,5.04
2017-05-07T05:17:45.316Z,4.70
2017-05-07T05:33:02.194Z,4.50
2017-05-07T05:35:28.827Z,4.50
2017-05-07T05:37:54.694Z,6.44
2017-05-07T05:40:20.540Z,4.56
2017-05-07T05:42:46.379Z,4.68
2017-05-07T05:45:12.344Z,4.50
2017-05-07T05:47:38.173Z,4.56
2017-05-07T05:50:04.021Z,4.42
2017-05-07T05:52:29.887Z,5.12
2017-05-07T05:54:56.475Z,4.68
2017-05-07T05:57:22.416Z,3.90
2017-05-07T05:59:48.249Z,4.08
2017-05-07T06:02:14.087Z,5.10
2017-05-07T06:04:39.930Z,4.32
2017-05-07T06:07:05.814Z,5.02
2017-05-07T06:09:31.747Z,4.10
2017-05-07T06:11:57.582Z,4.72
2017-05-07T06:14:23.433Z,4.48
2017-05-07T06:16:49.291Z,4.34
2017-05-07T06:19:15.137Z,4.12
2017-05-07T06:21:41.061Z,3.96
2017-05-07T06:24:06.935Z,4.12
2017-05-07T06:26:32.830Z,4.34
2017-05-07T06:28:58.674Z,3.92
2017-05-07T06:31:24.525Z,3.76
2017-05-07T06:33:50.478Z,5.22
2017-05-07T06:36:16.324Z,4.20
2017-05-07T06:38:42.171Z,3.90
2017-05-07T06:41:08.026Z,3.54
2017-05-07T06:43:33.894Z,3.90
2017-05-07T06:45:59.846Z,4.06
2017-05-07T06:48:26.466Z,3.64
2017-05-07T06:50:52.313Z,3.92
2017-05-07T06:53:18.917Z,3.64
2017-05-07T06:55:44.799Z,4.72
2017-05-07T06:58:10.730Z,5.26
2017-05-07T07:00:36.588Z,4.32
2017-05-07T07:03:02.446Z,4.84
2017-05-07T07:05:28.267Z,4.44
2017-05-07T07:07:54.117Z,5.58
2017-05-07T07:10:20.064Z,4.82
2017-05-07T07:12:45.943Z,5.22
2017-05-07T07:15:11.940Z,5.84
2017-05-07T07:17:38.527Z,6.10
2017-05-07T07:20:04.398Z,7.96
2017-05-07T07:22:30.336Z,6.12
2017-05-07T07:24:56.166Z,5.72
2017-05-07T07:27:22.037Z,5.10
2017-05-07T07:29:47.956Z,5.58
2017-05-07T07:32:13.774Z,10.22
2017-05-07T07:34:39.707Z,15.80
2017-05-07T07:37:05.586Z,13.74
2017-05-07T07:39:31.460Z,15.74
2017-05-07T07:41:57.302Z,17.66
2017-05-07T07:44:23.142Z,18.22
2017-05-07T07:46:49.964Z,17.48
2017-05-07T07:49:15.803Z,15.36
2017-05-07T07:51:41.651Z,14.86
2017-05-07T07:54:07.494Z,17.54
2017-05-07T07:56:33.376Z,14.60
2017-05-07T07:58:59.312Z,22.72
2017-05-07T08:01:25.160Z,17.34
2017-05-07T08:03:51.057Z,30.18
2017-05-07T08:06:16.994Z,34.22
2017-05-07T08:08:42.833Z,38.36
2017-05-07T08:11:08.753Z,42.30
2017-05-07T08:13:34.674Z,47.82
2017-05-07T08:16:00.534Z,47.80
2017-05-07T08:18:26.367Z,47.02
2017-05-07T08:20:52.240Z,43.96
2017-05-07T08:23:18.157Z,43.28
2017-05-07T08:25:44.047Z,46.06
2017-05-07T08:28:09.890Z,63.70
2017-05-07T08:30:35.790Z,56.48
2017-05-07T08:33:01.652Z,55.80
2017-05-07T08:35:27.659Z,41.54
2017-05-07T08:37:53.583Z,47.40
2017-05-07T08:40:19.399Z,47.02
2017-05-07T08:42:45.234Z,44.04
2017-05-07T08:45:11.163Z,43.06
2017-05-07T08:47:37.178Z,46.18
2017-05-07T08:50:03.082Z,42.26
2017-05-07T08:52:28.989Z,40.66
2017-05-07T08:54:54.924Z,35.48
2017-05-07T08:57:20.749Z,39.72
2017-05-07T08:59:47.661Z,35.52
2017-05-07T09:02:13.514Z,40.62
2017-05-07T09:04:39.357Z,39.22
2017-05-07T09:07:05.342Z,46.54
2017-05-07T09:09:31.230Z,37.86
2017-05-07T09:22:04.225Z,37.17
2017-05-07T09:24:30.187Z,31.10
2017-05-07T09:26:56.581Z,30.86
2017-05-07T09:29:23.445Z,34.72
2017-05-07T09:31:49.789Z,33.40
2017-05-07T09:34:15.575Z,28.08
2017-05-07T09:36:41.430Z,27.42
2017-05-07T09:39:07.440Z,28.92
2017-05-07T09:41:34.032Z,28.08
2017-05-07T09:44:00.024Z,28.42
2017-05-07T09:46:25.945Z,26.26
2017-05-07T09:48:51.770Z,24.28
2017-05-07T09:51:17.700Z,22.68
2017-05-07T09:53:43.579Z,24.86
2017-05-07T09:58:42.222Z,25.33
2017-05-07T10:01:08.122Z,24.38
2017-05-07T10:03:34.077Z,22.88
2017-05-07T10:05:59.970Z,34.70
2017-05-07T10:08:25.825Z,29.38
2017-05-07T10:10:51.687Z,41.84
2017-05-07T10:13:18.329Z,38.64
2017-05-07T10:16:11.102Z,41.32
2017-05-07T10:18:36.974Z,45.38
2017-05-07T10:21:02.822Z,42.46
2017-05-07T10:23:28.675Z,34.54
2017-05-07T10:25:54.554Z,42.28
2017-05-07T10:28:21.427Z,34.92
2017-05-07T10:30:47.322Z,43.18
2017-05-07T10:33:13.909Z,37.56
2017-05-07T10:35:39.771Z,32.18
2017-05-07T10:38:05.658Z,30.80
2017-05-07T10:40:31.621Z,31.16
2017-05-07T10:42:57.552Z,29.84
2017-05-07T10:45:23.407Z,26.64
2017-05-07T10:47:49.366Z,31.06
2017-05-07T10:50:15.205Z,29.34
2017-05-07T10:52:41.158Z,22.20
2017-05-07T10:55:07.014Z,26.08
2017-05-07T10:57:33.646Z,30.12
2017-05-07T10:59:59.534Z,23.76
2017-05-07T11:02:25.419Z,26.38
2017-05-07T11:04:51.397Z,21.60
2017-05-07T11:07:17.254Z,29.44
2017-05-07T11:09:43.102Z,21.42
2017-05-07T11:12:08.941Z,21.68
2017-05-07T11:14:34.799Z,22.20
2017-05-07T11:17:00.774Z,20.66
2017-05-07T11:19:27.222Z,18.52
2017-05-07T11:21:53.085Z,24.28
2017-05-07T11:24:18.938Z,22.56
2017-05-07T11:26:45.632Z,24.30
2017-05-07T11:29:11.555Z,20.72
2017-05-07T11:31:37.479Z,18.18
2017-05-07T11:34:03.356Z,21.32
2017-05-07T11:36:29.207Z,25.32
2017-05-07T11:38:55.763Z,19.40
2017-05-07T11:41:23.102Z,19.74
2017-05-07T11:43:49.673Z,20.82
2017-05-07T11:46:15.569Z,21.40
2017-05-07T11:48:41.465Z,25.70
2017-05-07T11:51:07.342Z,16.98
2017-05-07T11:53:33.300Z,17.54
2017-05-07T11:55:59.174Z,20.74
2017-05-07T11:58:25.018Z,21.78
2017-05-07T12:00:50.866Z,19.54
2017-05-07T12:03:16.773Z,17.86
2017-05-07T12:05:43.336Z,17.94
2017-05-07T12:08:09.089Z,16.88
2017-05-07T12:10:35.713Z,17.96
2017-05-07T12:13:01.654Z,15.74
2017-05-07T12:15:27.514Z,16.02
2017-05-07T12:17:53.470Z,19.28
2017-05-07T12:20:19.336Z,20.58
2017-05-07T12:22:45.230Z,16.52
2017-05-07T12:25:11.084Z,18.82
2017-05-07T12:27:36.939Z,18.92
2017-05-07T12:30:02.914Z,18.72
2017-05-07T12:32:28.773Z,16.38
2017-05-07T12:34:54.623Z,17.06
2017-05-07T12:37:20.497Z,17.08
2017-05-07T12:39:46.327Z,19.58
2017-05-07T12:42:12.271Z,12.98
2017-05-07T12:44:38.119Z,16.36
2017-05-07T12:47:03.991Z,15.02
2017-05-07T12:49:29.976Z,15.60
2017-05-07T12:51:55.850Z,16.96
2017-05-07T12:54:22.841Z,12.78
2017-05-07T12:56:48.053Z,13.30
2017-05-07T12:59:13.937Z,10.24
2017-05-07T13:01:39.847Z,11.62
2017-05-07T13:04:06.278Z,10.38
2017-05-07T13:06:32.222Z,8.66
2017-05-07T13:08:58.070Z,8.44
2017-05-07T13:11:23.969Z,7.94
2017-05-07T13:13:49.830Z,9.26
2017-05-07T13:16:15.834Z,8.42
2017-05-07T13:18:41.778Z,7.56
2017-05-07T13:21:07.642Z,7.46
2017-05-07T13:23:33.519Z,6.98
2017-05-07T13:25:59.366Z,5.94
2017-05-07T13:28:25.211Z,8.12
2017-05-07T13:30:51.164Z,7.10
2017-05-07T13:33:17.076Z,5.70
2017-05-07T13:35:42.971Z,10.20
2017-05-07T13:40:42.040Z,9.72
2017-05-07T13:43:08.021Z,11.40
2017-05-07T13:48:06.554Z,10.97
2017-05-07T13:50:32.461Z,9.92
2017-05-07T13:52:58.369Z,9.04
2017-05-07T13:55:24.322Z,12.44
2017-05-07T13:57:50.190Z,11.30
2017-05-07T14:00:16.145Z,9.78
2017-05-07T14:02:41.994Z,8.18
2017-05-07T14:05:07.838Z,8.36
2017-05-07T14:07:33.755Z,8.96
2017-05-07T14:09:59.630Z,13.22
2017-05-07T14:12:25.479Z,9.14
2017-05-07T14:14:51.367Z,8.06
2017-05-07T14:17:17.327Z,8.32
2017-05-07T14:19:43.218Z,12.78
2017-05-07T14:22:09.127Z,10.72
2017-05-07T14:24:35.019Z,15.46
2017-05-07T14:27:00.932Z,11.14
2017-05-07T14:29:27.097Z,15.44
2017-05-07T14:31:52.965Z,12.84
2017-05-07T14:34:18.842Z,11.26
2017-05-07T14:36:44.679Z,11.32
2017-05-07T14:39:10.540Z,10.00
2017-05-07T14:41:36.479Z,10.72
2017-05-07T14:44:02.382Z,11.36
2017-05-07T14:46:28.272Z,10.18
2017-05-07T14:48:54.386Z,10.94
2017-05-07T14:51:20.308Z,9.68
2017-05-07T14:53:46.214Z,9.54
2017-05-07T14:56:12.055Z,13.48
2017-05-07T14:58:38.049Z,11.54
2017-05-07T15:01:04.249Z,14.94
2017-05-07T15:03:30.151Z,10.80
2017-05-07T15:05:56.007Z,17.52
2017-05-07T15:08:21.902Z,13.62
2017-05-07T15:10:47.902Z,11.36
2017-05-07T15:13:13.744Z,9.94
2017-05-07T15:15:39.594Z,10.46
2017-05-07T15:18:05.454Z,9.68
2017-05-07T15:20:31.317Z,9.70
2017-05-07T15:22:57.233Z,9.30
2017-05-07T15:25:23.108Z,14.04
2017-05-07T15:27:49.134Z,10.24
2017-05-07T15:30:15.047Z,11.12
2017-05-07T15:32:41.123Z,9.84
2017-05-07T15:35:07.711Z,7.44
2017-05-07T15:37:33.584Z,11.28
2017-05-07T15:39:59.706Z,10.74
2017-05-07T15:42:26.285Z,8.22
2017-05-07T15:44:52.170Z,9.60
2017-05-07T15:47:18.037Z,8.52
2017-05-07T15:49:43.974Z,7.56
2017-05-07T15:52:10.777Z,7.12
2017-05-07T15:54:36.571Z,8.14
2017-05-07T15:57:02.467Z,7.10
2017-05-07T15:59:28.306Z,7.54
2017-05-07T16:01:54.187Z,6.90
2017-05-07T16:04:20.053Z,7.46
2017-05-07T16:06:45.864Z,8.72
2017-05-07T16:09:11.798Z,6.52
2017-05-07T16:11:37.674Z,6.72
2017-05-07T16:14:03.549Z,6.70
2017-05-07T16:16:43.731Z,6.26
2017-05-07T16:34:35.730Z,6.00
2017-05-07T16:37:02.322Z,5.12
2017-05-07T16:39:28.234Z,5.38
2017-05-07T16:41:54.080Z,6.64
2017-05-07T16:44:19.921Z,5.24
2017-05-07T16:46:45.795Z,4.90
2017-05-07T16:49:11.685Z,5.98
2017-05-07T16:51:37.548Z,5.20
2017-05-07T16:54:03.406Z,6.30
2017-05-07T16:56:29.403Z,5.10
2017-05-07T16:58:55.499Z,7.10
2017-05-07T17:01:21.434Z,5.46
2017-05-07T17:03:47.314Z,7.62
2017-05-07T17:06:19.307Z,7.56
2017-05-07T17:08:45.247Z,5.18
2017-05-07T17:11:11.175Z,4.82
2017-05-07T17:13:38.002Z,5.00
2017-05-07T17:16:03.859Z,6.72
2017-05-07T17:18:29.825Z,6.04
2017-05-07T17:20:55.727Z,6.22
2017-05-07T17:23:21.576Z,6.40
2017-05-07T17:25:47.491Z,5.76
2017-05-07T17:28:13.396Z,4.54
2017-05-07T17:30:39.231Z,5.36
2017-05-07T17:33:05.071Z,5.44
2017-05-07T17:35:30.914Z,6.60
2017-05-07T17:37:56.886Z,5.48
2017-05-07T17:40:22.855Z,8.52
2017-05-07T17:42:48.707Z,4.66
2017-05-07T17:45:14.554Z,4.58
2017-05-07T17:47:40.403Z,4.32
2017-05-07T17:50:06.406Z,4.30
2017-05-07T17:52:32.230Z,4.90
2017-05-07T17:54:58.893Z,7.10
2017-05-07T17:57:24.955Z,5.78
2017-05-07T18:02:23.714Z,4.58
2017-05-07T18:04:49.446Z,4.74
2017-05-07T18:07:15.344Z,6.22
2017-05-07T18:09:41.282Z,5.90
2017-05-07T18:12:07.106Z,5.10
2017-05-07T18:14:32.962Z,5.64
2017-05-07T18:16:58.837Z,6.36
2017-05-07T18:19:24.758Z,4.68
2017-05-07T18:21:50.615Z,5.90
2017-05-07T18:24:17.190Z,6.26
2017-05-07T18:26:43.450Z,6.62
2017-05-07T18:29:09.276Z,5.30
2017-05-07T18:31:35.226Z,5.18
2017-05-07T18:34:01.084Z,4.48
2017-05-07T18:36:26.967Z,5.74
2017-05-07T18:41:55.474Z,7.50
2017-05-07T18:44:21.393Z,8.30
2017-05-07T18:46:47.354Z,6.50
2017-05-07T18:49:13.266Z,5.34
2017-05-07T18:51:39.180Z,8.82
2017-05-07T19:03:20.394Z,5.30
2017-05-07T19:05:46.355Z,6.18
2017-05-07T19:08:12.219Z,5.50
2017-05-07T19:22:25.873Z,7.92
2017-05-07T19:27:54.351Z,7.98
2017-05-07T19:30:20.973Z,6.02
2017-05-07T19:32:46.904Z,5.70
2017-05-07T19:35:13.487Z,8.58
2017-05-07T19:37:39.506Z,7.94
2017-05-07T19:43:06.023Z,11.16
2017-05-07T19:45:32.198Z,7.92
2017-05-07T19:47:58.274Z,6.28
2017-05-07T19:50:25.395Z,7.40
2017-05-07T19:52:51.365Z,7.38
2017-05-07T20:04:06.572Z,10.00
2017-05-07T20:06:32.430Z,10.88
2017-05-07T20:14:57.078Z,7.76
2017-05-07T20:17:22.955Z,8.78
2017-05-07T20:19:48.822Z,9.20
2017-05-07T20:22:14.792Z,13.76
2017-05-07T20:24:40.828Z,7.46
2017-05-07T20:27:06.884Z,10.74
2017-05-07T20:29:32.924Z,7.00
2017-05-07T20:31:58.971Z,11.84
2017-05-07T20:34:24.783Z,8.08
2017-05-07T20:36:50.631Z,7.30
2017-05-07T20:45:09.443Z,7.92
2017-05-07T20:47:35.322Z,8.70
2017-05-07T20:50:01.294Z,6.40
2017-05-07T20:52:27.191Z,8.70
2017-05-07T20:54:58.848Z,8.50
2017-05-07T20:57:25.455Z,8.00
2017-05-07T20:59:51.330Z,10.12
2017-05-07T21:02:17.183Z,9.60
2017-05-07T21:04:43.063Z,8.02
2017-05-07T21:07:09.302Z,7.80
2017-05-07T21:24:18.696Z,9.04
2017-05-07T21:44:25.902Z,6.24
2017-05-07T21:46:52.815Z,5.48
2017-05-07T21:49:18.591Z,6.02
2017-05-07T21:51:44.462Z,5.34
2017-05-07T21:54:10.307Z,5.32
2017-05-07T22:05:26.777Z,5.30
2017-05-07T22:07:52.606Z,6.68
2017-05-07T22:25:00.666Z,5.54
2017-05-07T22:27:26.554Z,4.54
2017-05-07T22:29:52.510Z,5.66
2017-05-07T22:32:18.362Z,5.72
2017-05-07T22:34:44.263Z,4.60
2017-05-07T22:37:10.117Z,6.06
2017-05-07T22:39:35.947Z,4.80
2017-05-07T22:44:58.237Z,4.56
2017-05-07T22:47:24.268Z,3.62
2017-05-07T22:49:50.142Z,4.28
2017-05-07T22:52:15.987Z,4.44
2017-05-07T23:03:59.271Z,4.40
2017-05-07T23:06:25.115Z,4.06
2017-05-07T23:08:50.957Z,4.38
2017-05-07T23:23:02.919Z,3.74
2017-05-07T23:43:10.810Z,3.22
2017-05-07T23:45:36.691Z,3.16
2017-05-07T23:48:02.644Z,2.94
2017-05-07T23:50:28.483Z,3.72
2017-05-07T23:52:54.668Z,3.80
